createdAt,value
2023-03-06T00:01:31.923Z,98630.06
2023-03-06T00:03:05.461Z,98634.66
2023-03-06T00:04:37.614Z,98637.09
2023-03-06T00:06:10.818Z,98633.88
2023-03-06T00:07:45.283Z,98635.66
2023-03-06T00:09:18.422Z,98635.66
2023-03-06T00:10:52.999Z,98628.72
2023-03-06T00:12:27.687Z,98636.59
2023-03-06T00:14:00.948Z,98627.09
2023-03-06T00:15:33.770Z,98631.47
2023-03-06T00:17:07.010Z,98634.13
2023-03-06T00:18:39.119Z,98621.91
2023-03-06T00:20:13.978Z,98625.47
2023-03-06T00:21:47.191Z,98632.41
2023-03-06T00:23:20.360Z,98631.56
2023-03-06T00:24:53.856Z,98621.13
2023-03-06T00:26:28.526Z,98620.38
2023-03-06T00:28:01.805Z,98623.84
2023-03-06T00:29:35.088Z,98625.63
2023-03-06T00:31:08.248Z,98620.47
2023-03-06T00:32:42.286Z,98622.19
2023-03-06T00:34:16.024Z,98630.06
2023-03-06T00:35:49.263Z,98627.44
2023-03-06T00:37:23.809Z,98624.00
2023-03-06T00:38:57.145Z,98618.75
2023-03-06T00:40:31.634Z,98623.19
2023-03-06T00:42:07.945Z,98626.81
2023-03-06T00:43:41.258Z,98617.28
2023-03-06T00:45:13.714Z,98620.84
2023-03-06T00:46:46.847Z,98628.00
2023-03-06T00:48:20.026Z,98623.72
2023-03-06T00:49:53.129Z,98622.06
2023-03-06T00:51:26.611Z,98623.00
2023-03-06T00:52:58.864Z,98623.09
2023-03-06T00:54:31.994Z,98616.25
2023-03-06T00:56:04.218Z,98614.69
2023-03-06T00:57:39.124Z,98620.00
2023-03-06T00:59:12.469Z,98619.16
2023-03-06T01:00:46.490Z,98620.19
2023-03-06T01:02:19.656Z,98611.59
2023-03-06T01:03:52.922Z,98617.63
2023-03-06T01:05:27.649Z,98614.25
2023-03-06T01:07:00.783Z,98615.16
2023-03-06T01:08:33.912Z,98613.53
2023-03-06T01:10:08.248Z,98618.78
2023-03-06T01:11:41.548Z,98617.94
2023-03-06T01:13:16.055Z,98617.06
2023-03-06T01:14:48.172Z,98613.53
2023-03-06T01:16:21.953Z,98617.22
2023-03-06T01:17:55.384Z,98615.44
2023-03-06T01:19:27.699Z,98614.84
2023-03-06T01:21:00.804Z,98614.22
2023-03-06T01:22:33.919Z,98620.56
2023-03-06T01:24:07.515Z,98619.94
2023-03-06T01:25:40.663Z,98611.50
2023-03-06T01:27:13.869Z,98618.53
2023-03-06T01:28:51.175Z,98614.28
2023-03-06T01:30:23.389Z,98622.25
2023-03-06T01:31:56.618Z,98615.34
2023-03-06T01:33:29.706Z,98618.06
2023-03-06T01:35:03.974Z,98609.41
2023-03-06T01:36:37.343Z,98620.81
2023-03-06T01:38:10.580Z,98622.78
2023-03-06T01:39:44.007Z,98613.41
2023-03-06T01:41:17.566Z,98619.72
2023-03-06T01:42:51.978Z,98615.63
2023-03-06T01:44:25.595Z,98622.78
2023-03-06T01:46:35.192Z,98620.41
2023-03-06T01:48:09.024Z,98624.00
2023-03-06T01:49:43.148Z,98629.28
2023-03-06T01:51:16.234Z,98625.00
2023-03-06T01:52:54.107Z,98634.59
2023-03-06T01:54:32.377Z,98629.44
2023-03-06T01:56:04.972Z,98637.31
2023-03-06T01:57:42.094Z,98622.53
2023-03-06T01:59:16.115Z,98638.22
2023-03-06T02:00:50.769Z,98646.16
2023-03-06T02:02:23.979Z,98635.13
2023-03-06T02:03:57.354Z,98641.50
2023-03-06T02:05:30.931Z,98636.25
2023-03-06T02:07:05.907Z,98644.91
2023-03-06T02:08:40.941Z,98644.88
2023-03-06T02:10:15.206Z,98640.47
2023-03-06T02:11:48.732Z,98640.53
2023-03-06T02:13:21.011Z,98636.22
2023-03-06T02:14:58.489Z,98634.53
2023-03-06T02:16:35.281Z,98642.19
2023-03-06T02:18:08.600Z,98649.09
2023-03-06T02:19:52.639Z,98647.31
2023-03-06T02:21:28.324Z,98648.03
2023-03-06T02:23:07.343Z,98654.13
2023-03-06T02:24:47.113Z,98647.19
2023-03-06T02:26:21.468Z,98649.00
2023-03-06T02:27:54.580Z,98651.81
2023-03-06T02:29:30.263Z,98656.16
2023-03-06T02:31:08.814Z,98659.69
2023-03-06T02:32:42.156Z,98647.53
2023-03-06T02:34:53.798Z,98658.03
2023-03-06T02:36:26.642Z,98663.38
2023-03-06T02:38:03.790Z,98672.16
2023-03-06T02:39:40.795Z,98675.72
2023-03-06T02:41:14.388Z,98670.50
2023-03-06T02:42:50.914Z,98668.78
2023-03-06T02:44:24.346Z,98663.63
2023-03-06T02:45:57.669Z,98661.03
2023-03-06T02:47:31.620Z,98660.25
2023-03-06T02:49:06.296Z,98666.38
2023-03-06T02:50:39.682Z,98665.63
2023-03-06T02:52:11.971Z,98667.34
2023-03-06T02:53:45.824Z,98665.69
2023-03-06T02:55:18.583Z,98663.03
2023-03-06T02:56:51.758Z,98667.34
2023-03-06T02:58:26.344Z,98675.97
2023-03-06T02:59:58.429Z,98681.22
2023-03-06T03:01:32.523Z,98673.47
2023-03-06T03:03:06.641Z,98663.16
2023-03-06T03:04:38.819Z,98674.47
2023-03-06T03:06:12.731Z,98664.84
2023-03-06T03:07:47.506Z,98663.06
2023-03-06T03:09:19.958Z,98665.69
2023-03-06T03:10:53.238Z,98671.75
2023-03-06T03:12:28.680Z,98667.44
2023-03-06T03:14:03.593Z,98666.59
2023-03-06T03:15:36.994Z,98663.91
2023-03-06T03:17:10.143Z,98662.13
2023-03-06T03:18:44.473Z,98665.63
2023-03-06T03:20:21.068Z,98666.53
2023-03-06T03:21:53.220Z,98670.91
2023-03-06T03:23:29.186Z,98672.75
2023-03-06T03:25:05.121Z,98667.63
2023-03-06T03:26:37.597Z,98672.84
2023-03-06T03:28:18.540Z,98668.53
2023-03-06T03:29:53.294Z,98674.66
2023-03-06T03:31:26.454Z,98678.22
2023-03-06T03:33:00.221Z,98677.31
2023-03-06T03:34:33.649Z,98677.22
2023-03-06T03:36:07.694Z,98661.59
2023-03-06T03:37:44.710Z,98674.47
2023-03-06T03:39:19.054Z,98679.66
2023-03-06T03:40:52.553Z,98674.38
2023-03-06T03:42:25.868Z,98676.03
2023-03-06T03:43:59.856Z,98676.91
2023-03-06T03:45:34.833Z,98676.03
2023-03-06T03:47:08.968Z,98677.75
2023-03-06T03:48:42.890Z,98672.47
2023-03-06T03:50:16.537Z,98673.97
2023-03-06T03:51:50.811Z,98670.94
2023-03-06T03:53:23.841Z,98667.00
2023-03-06T03:54:57.294Z,98680.31
2023-03-06T03:56:31.920Z,98666.75
2023-03-06T03:58:10.228Z,98664.34
2023-03-06T03:59:43.633Z,98676.16
2023-03-06T04:01:39.779Z,98672.50
2023-03-06T04:03:14.268Z,98674.06
2023-03-06T04:04:50.834Z,98678.25
2023-03-06T04:06:24.021Z,98683.41
2023-03-06T04:07:57.406Z,98686.75
2023-03-06T04:09:31.431Z,98687.63
2023-03-06T04:11:05.222Z,98678.84
2023-03-06T04:12:39.817Z,98677.22
2023-03-06T04:14:13.128Z,98683.31
2023-03-06T04:15:46.342Z,98684.16
2023-03-06T04:17:20.981Z,98679.78
2023-03-06T04:18:53.545Z,98673.69
2023-03-06T04:20:27.969Z,98677.13
2023-03-06T04:22:03.267Z,98682.38
2023-03-06T04:23:37.606Z,98683.22
2023-03-06T04:25:11.773Z,98683.28
2023-03-06T04:26:45.029Z,98681.50
2023-03-06T04:28:17.796Z,98675.41
2023-03-06T04:29:51.185Z,98675.41
2023-03-06T04:31:24.512Z,98680.56
2023-03-06T04:32:58.573Z,98670.25
2023-03-06T04:34:32.181Z,98668.75
2023-03-06T04:36:06.180Z,98684.34
2023-03-06T04:37:40.112Z,98686.13
2023-03-06T04:39:14.318Z,98690.59
2023-03-06T04:40:50.006Z,98684.56
2023-03-06T04:42:23.403Z,98679.50
2023-03-06T04:43:56.515Z,98689.09
2023-03-06T04:45:30.819Z,98686.59
2023-03-06T04:47:04.392Z,98698.78
2023-03-06T04:48:39.145Z,98696.25
2023-03-06T04:50:12.203Z,98695.34
2023-03-06T04:51:45.322Z,98689.38
2023-03-06T04:53:19.821Z,98695.47
2023-03-06T04:54:53.345Z,98692.06
2023-03-06T04:56:26.459Z,98700.00
2023-03-06T04:58:00.141Z,98695.66
2023-03-06T04:59:33.573Z,98697.44
2023-03-06T05:01:07.213Z,98700.09
2023-03-06T05:02:39.413Z,98706.19
2023-03-06T05:04:13.897Z,98706.16
2023-03-06T05:05:46.702Z,98708.75
2023-03-06T05:07:19.866Z,98709.63
2023-03-06T05:08:52.989Z,98709.56
2023-03-06T05:10:26.189Z,98711.38
2023-03-06T05:11:59.605Z,98705.25
2023-03-06T05:13:32.805Z,98711.38
2023-03-06T05:15:06.824Z,98716.59
2023-03-06T05:16:40.015Z,98727.09
2023-03-06T05:18:13.751Z,98719.97
2023-03-06T05:19:48.353Z,98727.03
2023-03-06T05:21:21.496Z,98726.84
2023-03-06T05:22:54.590Z,98719.84
2023-03-06T05:24:28.094Z,98733.59
2023-03-06T05:26:01.269Z,98733.22
2023-03-06T05:27:33.526Z,98734.34
2023-03-06T05:29:06.934Z,98737.25
2023-03-06T05:30:40.329Z,98739.34
2023-03-06T05:32:12.722Z,98740.56
2023-03-06T05:33:46.113Z,98745.31
2023-03-06T05:35:22.783Z,98746.28
2023-03-06T05:36:56.266Z,98749.91
2023-03-06T05:38:29.558Z,98741.28
2023-03-06T05:40:06.680Z,98751.72
2023-03-06T05:41:39.867Z,98744.09
2023-03-06T05:43:14.294Z,98749.72
2023-03-06T05:44:47.682Z,98753.50
2023-03-06T05:46:20.868Z,98749.44
2023-03-06T05:47:54.109Z,98753.84
2023-03-06T05:49:27.966Z,98756.50
2023-03-06T05:51:03.595Z,98763.91
2023-03-06T05:52:36.874Z,98766.19
2023-03-06T05:54:10.252Z,98766.75
2023-03-06T05:55:43.574Z,98771.94
2023-03-06T05:57:16.715Z,98768.16
2023-03-06T05:58:51.212Z,98776.88
2023-03-06T06:00:25.058Z,98774.69
2023-03-06T06:01:58.876Z,98790.41
2023-03-06T06:03:31.998Z,98781.16
2023-03-06T06:05:05.576Z,98786.09
2023-03-06T06:06:40.238Z,98781.44
2023-03-06T06:08:13.730Z,98777.72
2023-03-06T06:09:46.929Z,98780.56
2023-03-06T06:11:20.950Z,98778.28
2023-03-06T06:12:54.147Z,98785.13
2023-03-06T06:14:27.603Z,98780.28
2023-03-06T06:16:00.805Z,98781.00
2023-03-06T06:17:34.259Z,98784.91
2023-03-06T06:19:07.340Z,98792.44
2023-03-06T06:20:40.757Z,98789.94
2023-03-06T06:22:15.435Z,98793.75
2023-03-06T06:23:48.804Z,98789.31
2023-03-06T06:25:22.036Z,98796.41
2023-03-06T06:26:57.401Z,98803.72
2023-03-06T06:28:31.404Z,98800.16
2023-03-06T06:30:05.285Z,98797.00
2023-03-06T06:31:39.029Z,98799.72
2023-03-06T06:33:12.383Z,98804.13
2023-03-06T06:34:45.499Z,98798.38
2023-03-06T06:36:20.581Z,98807.50
2023-03-06T06:37:55.131Z,98798.56
2023-03-06T06:39:29.051Z,98809.94
2023-03-06T06:41:33.461Z,98806.34
2023-03-06T06:42:57.934Z,98814.94
2023-03-06T06:44:31.475Z,98807.44
2023-03-06T06:46:31.508Z,98816.66
2023-03-06T06:47:59.194Z,98815.22
2023-03-06T06:49:33.168Z,98812.91
2023-03-06T06:51:06.896Z,98807.75
2023-03-06T06:52:40.239Z,98813.63
2023-03-06T06:54:14.976Z,98813.53
2023-03-06T06:55:48.280Z,98814.44
2023-03-06T06:57:21.880Z,98819.94
2023-03-06T06:59:03.859Z,98822.13
2023-03-06T07:00:43.815Z,98817.09
2023-03-06T07:02:17.649Z,98819.72
2023-03-06T07:03:50.881Z,98817.47
2023-03-06T07:05:24.042Z,98810.72
2023-03-06T07:06:57.440Z,98818.97
2023-03-06T07:08:30.828Z,98820.25
2023-03-06T07:10:06.816Z,98821.63
2023-03-06T07:11:40.608Z,98826.81
2023-03-06T07:13:13.841Z,98822.13
2023-03-06T07:14:47.134Z,98825.50
2023-03-06T07:16:20.404Z,98821.88
2023-03-06T07:17:53.596Z,98833.53
2023-03-06T07:19:27.154Z,98818.47
2023-03-06T07:21:01.393Z,98816.84
2023-03-06T07:22:49.921Z,98815.28
2023-03-06T07:24:23.741Z,98820.69
2023-03-06T07:25:59.378Z,98831.13
2023-03-06T07:27:32.793Z,98814.72
2023-03-06T07:29:06.010Z,98818.13
2023-03-06T07:30:41.159Z,98814.09
2023-03-06T07:32:14.706Z,98812.31
2023-03-06T07:33:48.175Z,98815.13
2023-03-06T07:35:21.396Z,98820.88
2023-03-06T07:36:54.502Z,98819.31
2023-03-06T07:38:27.927Z,98821.19
2023-03-06T07:40:01.270Z,98813.69
2023-03-06T07:41:36.053Z,98827.84
2023-03-06T07:43:19.140Z,98824.56
2023-03-06T07:45:03.255Z,98820.25
2023-03-06T07:46:36.714Z,98820.56
2023-03-06T07:48:10.866Z,98823.88
2023-03-06T07:49:44.019Z,98827.09
2023-03-06T07:51:19.643Z,98831.09
2023-03-06T07:52:53.860Z,98831.84
2023-03-06T07:54:27.108Z,98831.59
2023-03-06T07:56:00.477Z,98826.16
2023-03-06T07:57:35.616Z,98822.41
2023-03-06T07:59:08.733Z,98835.22
2023-03-06T08:00:41.869Z,98830.03
2023-03-06T08:02:15.068Z,98837.41
2023-03-06T08:03:50.317Z,98835.06
2023-03-06T08:05:23.562Z,98832.31
2023-03-06T08:06:57.639Z,98824.75
2023-03-06T08:08:30.758Z,98836.59
2023-03-06T08:10:04.682Z,98836.44
2023-03-06T08:11:37.770Z,98833.53
2023-03-06T08:13:12.296Z,98831.53
2023-03-06T08:14:45.352Z,98832.78
2023-03-06T08:16:21.249Z,98829.09
2023-03-06T08:17:54.374Z,98832.00
2023-03-06T08:19:27.532Z,98830.41
2023-03-06T08:21:05.262Z,98841.75
2023-03-06T08:22:39.134Z,98834.81
2023-03-06T08:24:13.294Z,98834.03
2023-03-06T08:25:46.486Z,98824.72
2023-03-06T08:27:19.613Z,98821.69
2023-03-06T08:28:55.652Z,98823.38
2023-03-06T08:30:28.797Z,98835.28
2023-03-06T08:32:02.130Z,98824.22
2023-03-06T08:33:35.597Z,98828.13
2023-03-06T08:35:09.875Z,98826.03
2023-03-06T08:36:43.233Z,98825.59
2023-03-06T08:38:16.530Z,98824.75
2023-03-06T08:39:49.813Z,98825.13
2023-03-06T08:41:23.686Z,98826.44
2023-03-06T08:42:56.812Z,98824.56
2023-03-06T08:44:31.379Z,98820.06
2023-03-06T08:46:05.417Z,98815.81
2023-03-06T08:47:39.095Z,98822.53
2023-03-06T08:49:14.051Z,98818.03
2023-03-06T08:50:47.789Z,98821.88
2023-03-06T08:52:21.013Z,98808.22
2023-03-06T08:53:54.516Z,98814.44
2023-03-06T08:55:28.414Z,98817.91
2023-03-06T08:57:01.612Z,98815.19
2023-03-06T08:58:35.011Z,98813.91
2023-03-06T09:00:12.943Z,98817.53
2023-03-06T09:01:46.751Z,98803.63
2023-03-06T09:03:20.056Z,98815.81
2023-03-06T09:04:53.967Z,98805.34
2023-03-06T09:06:28.947Z,98815.66
2023-03-06T09:08:02.152Z,98811.38
2023-03-06T09:09:35.317Z,98810.13
2023-03-06T09:11:09.665Z,98805.94
2023-03-06T09:12:50.643Z,98811.06
2023-03-06T09:14:25.195Z,98812.56
2023-03-06T09:15:59.766Z,98809.75
2023-03-06T09:17:32.902Z,98813.72
2023-03-06T09:19:06.909Z,98798.41
2023-03-06T09:20:40.018Z,98792.13
2023-03-06T09:22:14.614Z,98791.38
2023-03-06T09:23:47.792Z,98802.50
2023-03-06T09:25:23.525Z,98799.34
2023-03-06T09:26:56.589Z,98795.13
2023-03-06T09:28:29.943Z,98779.78
2023-03-06T09:30:03.424Z,98793.72
2023-03-06T09:31:38.237Z,98799.38
2023-03-06T09:33:11.324Z,98791.34
2023-03-06T09:34:44.466Z,98792.94
2023-03-06T09:36:20.492Z,98794.03
2023-03-06T09:37:54.126Z,98790.97
2023-03-06T09:39:27.843Z,98793.78
2023-03-06T09:41:06.133Z,98794.44
2023-03-06T09:42:39.229Z,98782.00
2023-03-06T09:44:17.772Z,98790.66
2023-03-06T09:45:50.990Z,98783.13
2023-03-06T09:47:42.202Z,98793.44
2023-03-06T09:49:38.505Z,98778.28
2023-03-06T09:51:16.623Z,98781.19
2023-03-06T09:53:04.705Z,98786.91
2023-03-06T09:54:44.763Z,98782.47
2023-03-06T09:56:20.768Z,98779.47
2023-03-06T09:57:59.168Z,98776.66
2023-03-06T09:59:33.278Z,98774.78
2023-03-06T10:01:16.568Z,98767.75
2023-03-06T10:02:57.279Z,98776.06
2023-03-06T10:04:37.428Z,98766.03
2023-03-06T10:06:16.317Z,98760.22
2023-03-06T10:07:54.191Z,98771.88
2023-03-06T10:09:32.433Z,98775.38
2023-03-06T10:11:09.811Z,98764.16
2023-03-06T10:12:49.202Z,98759.78
2023-03-06T10:14:31.701Z,98756.78
2023-03-06T10:16:13.695Z,98759.78
2023-03-06T10:17:47.431Z,98756.44
2023-03-06T10:19:22.587Z,98755.25
2023-03-06T10:21:13.400Z,98749.72
2023-03-06T10:23:06.810Z,98742.13
2023-03-06T10:24:55.870Z,98743.06
2023-03-06T10:26:37.329Z,98744.94
2023-03-06T10:28:17.566Z,98752.09
2023-03-06T10:30:03.871Z,98754.38
2023-03-06T10:31:40.013Z,98746.06
2023-03-06T10:33:24.198Z,98740.00
2023-03-06T10:35:02.220Z,98739.78
2023-03-06T10:36:35.560Z,98732.31
2023-03-06T10:38:19.735Z,98735.34
2023-03-06T10:39:58.485Z,98730.88
2023-03-06T10:41:35.869Z,98726.19
2023-03-06T10:43:12.547Z,98722.09
2023-03-06T10:44:46.002Z,98716.59
2023-03-06T10:46:29.685Z,98709.75
2023-03-06T10:48:12.408Z,98719.81
2023-03-06T10:50:00.743Z,98714.56
2023-03-06T10:51:35.597Z,98719.81
2023-03-06T10:53:20.908Z,98713.88
2023-03-06T10:54:54.057Z,98711.84
2023-03-06T10:56:29.195Z,98695.72
2023-03-06T10:58:18.682Z,98696.38
2023-03-06T10:59:54.431Z,98697.25
2023-03-06T11:01:27.701Z,98695.34
2023-03-06T11:03:23.505Z,98697.34
2023-03-06T11:05:00.433Z,98692.16
2023-03-06T11:06:35.856Z,98694.81
2023-03-06T11:08:21.845Z,98689.03
2023-03-06T11:10:05.672Z,98676.19
2023-03-06T11:11:38.816Z,98676.59
2023-03-06T11:13:23.817Z,98677.16
2023-03-06T11:15:24.686Z,98674.13
2023-03-06T11:16:57.754Z,98671.56
2023-03-06T11:18:35.976Z,98671.47
2023-03-06T11:20:18.834Z,98657.50
2023-03-06T11:22:05.228Z,98668.81
2023-03-06T11:23:45.125Z,98662.13
2023-03-06T11:25:21.695Z,98655.75
2023-03-06T11:26:57.808Z,98650.63
2023-03-06T11:28:34.467Z,98648.34
2023-03-06T11:30:18.720Z,98647.00
2023-03-06T18:22:16.234Z,98554.28
2023-03-06T18:23:49.699Z,98566.22
2023-03-06T18:25:23.048Z,98560.22
2023-03-06T18:26:56.431Z,98570.06
2023-03-06T18:28:30.840Z,98563.22
2023-03-06T18:30:05.053Z,98568.50
2023-03-06T18:31:40.530Z,98565.09
2023-03-06T18:33:13.693Z,98572.09
2023-03-06T18:34:47.772Z,98562.53
2023-03-06T18:36:22.849Z,98563.66
2023-03-06T18:37:57.819Z,98551.75
2023-03-06T18:39:31.056Z,98557.31
2023-03-06T18:41:04.807Z,98549.81
2023-03-06T18:42:37.980Z,98559.38
2023-03-06T18:44:15.419Z,98551.84
2023-03-06T18:45:55.316Z,98550.81
2023-03-06T18:47:28.514Z,98551.38
2023-03-06T18:49:02.035Z,98544.63
2023-03-06T18:50:36.142Z,98546.59
2023-03-06T18:52:09.470Z,98542.38
2023-03-06T18:53:44.935Z,98547.00
2023-03-06T18:55:18.338Z,98546.13
2023-03-06T18:56:51.548Z,98548.00
2023-03-06T18:58:24.739Z,98551.53
2023-03-06T18:59:58.280Z,98542.19
2023-03-06T19:01:31.909Z,98552.78
2023-03-06T19:03:05.352Z,98549.34
2023-03-06T19:04:38.914Z,98550.53
2023-03-06T19:06:13.692Z,98546.00
2023-03-06T19:07:46.818Z,98553.13
2023-03-06T19:09:21.916Z,98555.78
2023-03-06T19:10:56.496Z,98551.44
2023-03-06T19:12:30.198Z,98557.59
2023-03-06T19:14:03.567Z,98561.28
2023-03-06T19:15:42.683Z,98561.41
2023-03-06T19:17:15.798Z,98549.53
2023-03-06T19:18:49.307Z,98550.50
2023-03-06T19:20:23.752Z,98547.78
2023-03-06T19:21:59.051Z,98546.09
2023-03-06T19:23:32.370Z,98546.22
2023-03-06T19:25:09.388Z,98542.91
2023-03-06T19:26:42.869Z,98543.09
2023-03-06T19:28:16.050Z,98553.69
2023-03-06T19:29:49.530Z,98559.06
2023-03-06T19:31:25.365Z,98565.09
2023-03-06T19:32:58.545Z,98567.59
2023-03-06T19:34:31.723Z,98558.88
2023-03-06T19:36:06.126Z,98562.50
2023-03-06T19:37:39.604Z,98563.59
2023-03-06T19:39:13.028Z,98564.31
2023-03-06T19:40:51.810Z,98569.59
2023-03-06T19:42:25.051Z,98571.34
2023-03-06T19:44:00.598Z,98575.63
2023-03-06T19:45:34.272Z,98567.78
2023-03-06T19:47:07.357Z,98564.69
2023-03-06T19:48:40.784Z,98566.63
2023-03-06T19:50:14.209Z,98558.03
2023-03-06T19:51:47.359Z,98565.97
2023-03-06T19:53:21.683Z,98558.28
2023-03-06T19:54:55.132Z,98561.94
2023-03-06T19:56:31.981Z,98563.88
2023-03-06T19:58:05.801Z,98552.75
2023-03-06T19:59:38.931Z,98550.53
2023-03-06T20:01:15.005Z,98556.09
2023-03-06T20:02:48.370Z,98551.88
2023-03-06T20:04:21.696Z,98552.03
2023-03-06T20:05:54.819Z,98548.47
2023-03-06T20:07:28.050Z,98547.28
2023-03-06T20:09:02.875Z,98552.91
2023-03-06T20:10:38.091Z,98551.63
2023-03-06T20:12:14.397Z,98546.81
2023-03-06T20:13:48.079Z,98543.59
2023-03-06T20:15:22.484Z,98548.75
2023-03-06T20:16:56.080Z,98545.09
2023-03-06T20:18:29.229Z,98543.16
2023-03-06T20:20:02.674Z,98536.13
2023-03-06T20:21:38.040Z,98538.75
2023-03-06T20:23:11.800Z,98543.03
2023-03-06T20:24:44.970Z,98541.22
2023-03-06T20:26:18.220Z,98533.41
2023-03-06T20:27:53.116Z,98523.72
2023-03-06T20:29:28.402Z,98541.22
2023-03-06T20:31:07.762Z,98542.06
2023-03-06T20:32:40.919Z,98529.94
2023-03-06T20:34:15.122Z,98534.69
2023-03-06T20:35:48.331Z,98524.50
2023-03-06T20:37:21.596Z,98524.50
2023-03-06T20:38:54.726Z,98527.97
2023-03-06T20:40:28.594Z,98525.41
2023-03-06T20:42:01.825Z,98523.00
2023-03-06T20:43:36.450Z,98523.09
2023-03-06T20:45:10.462Z,98526.59
2023-03-06T20:46:45.220Z,98524.19
2023-03-06T20:48:18.358Z,98519.03
2023-03-06T20:49:51.673Z,98523.56
2023-03-06T20:51:25.936Z,98522.78
2023-03-06T20:52:59.513Z,98525.59
2023-03-06T20:54:32.688Z,98523.94
2023-03-06T20:56:06.801Z,98519.56
2023-03-06T20:57:39.918Z,98524.06
2023-03-06T20:59:15.827Z,98510.22
2023-03-06T21:00:48.962Z,98517.22
2023-03-06T21:02:22.164Z,98513.88
2023-03-06T21:03:56.796Z,98512.34
2023-03-06T21:05:29.947Z,98515.25
2023-03-06T21:07:03.063Z,98514.78
2023-03-06T21:08:36.220Z,98511.56
2023-03-06T21:10:10.844Z,98510.03
2023-03-06T21:11:44.403Z,98522.16
2023-03-06T21:13:17.663Z,98514.34
2023-03-06T21:14:52.190Z,98513.41
2023-03-06T21:16:27.173Z,98511.75
2023-03-06T21:18:01.406Z,98511.75
2023-03-06T21:19:34.561Z,98507.41
2023-03-06T21:21:08.762Z,98508.53
2023-03-06T21:22:41.919Z,98501.75
2023-03-06T21:24:15.583Z,98501.84
2023-03-06T21:25:49.522Z,98504.56
2023-03-06T21:27:21.849Z,98496.81
2023-03-06T21:28:55.135Z,98503.94
2023-03-06T21:30:30.764Z,98497.94
2023-03-06T21:32:04.008Z,98506.91
2023-03-06T21:33:37.425Z,98509.75
2023-03-06T21:35:10.673Z,98503.69
2023-03-06T21:36:44.217Z,98508.06
2023-03-06T21:38:16.545Z,98505.59
2023-03-06T21:39:49.694Z,98514.44
2023-03-06T21:41:25.325Z,98517.06
2023-03-06T21:42:58.555Z,98513.59
2023-03-06T21:44:31.728Z,98510.84
2023-03-06T21:46:07.183Z,98508.22
2023-03-06T21:47:41.094Z,98509.97
2023-03-06T21:49:14.550Z,98504.72
2023-03-06T21:50:47.731Z,98506.56
2023-03-06T21:52:20.903Z,98510.19
2023-03-06T21:53:55.142Z,98503.16
2023-03-06T21:55:28.691Z,98498.06
2023-03-06T21:57:01.849Z,98513.09
2023-03-06T21:58:35.350Z,98507.13
2023-03-06T22:00:12.765Z,98511.88
2023-03-06T22:01:47.770Z,98510.34
2023-03-06T22:03:21.138Z,98505.94
2023-03-06T22:04:54.570Z,98505.25
2023-03-06T22:06:29.605Z,98519.19
2023-03-06T22:08:03.178Z,98511.25
2023-03-06T22:09:37.408Z,98511.38
2023-03-06T22:11:11.027Z,98514.03
2023-03-06T22:12:45.818Z,98518.41
2023-03-06T22:14:19.126Z,98514.03
2023-03-06T22:15:52.387Z,98518.41
2023-03-06T22:17:27.232Z,98513.16
2023-03-06T22:19:00.587Z,98510.47
2023-03-06T22:20:34.115Z,98514.78
2023-03-06T22:22:08.738Z,98513.44
2023-03-06T22:23:43.791Z,98513.59
2023-03-06T22:25:17.082Z,98511.00
2023-03-06T22:26:50.942Z,98511.97
2023-03-06T22:28:24.326Z,98516.53
2023-03-06T22:29:57.574Z,98512.31
2023-03-06T22:31:30.828Z,98505.50
2023-03-06T22:33:04.723Z,98507.63
2023-03-06T22:34:37.948Z,98503.44
2023-03-06T22:36:12.783Z,98499.28
2023-03-06T22:37:45.902Z,98503.81
2023-03-06T22:39:19.818Z,98494.50
2023-03-06T22:40:57.131Z,98501.69
2023-03-06T22:42:30.301Z,98500.97
2023-03-06T22:44:03.819Z,98494.97
2023-03-06T22:45:37.219Z,98490.66
2023-03-06T22:47:10.428Z,98501.31
2023-03-06T22:48:45.767Z,98497.03
2023-03-06T22:50:19.472Z,98499.56
2023-03-06T22:51:52.944Z,98504.72
2023-03-06T22:53:26.089Z,98507.38
2023-03-06T22:54:59.296Z,98510.91
2023-03-06T22:56:32.916Z,98505.56
2023-03-06T22:58:06.309Z,98516.00
2023-03-06T22:59:39.450Z,98515.06
2023-03-06T23:01:14.961Z,98516.09
2023-03-06T23:02:48.207Z,98514.34
2023-03-06T23:04:23.231Z,98513.34
2023-03-06T23:05:56.417Z,98515.88
2023-03-06T23:07:29.586Z,98515.13
2023-03-06T23:09:09.258Z,98519.41
2023-03-06T23:11:01.430Z,98523.09
2023-03-06T23:12:53.042Z,98524.94
2023-03-06T23:14:49.528Z,98515.56
2023-03-06T23:16:41.635Z,98521.91
2023-03-06T23:18:33.956Z,98524.59
2023-03-06T23:20:27.083Z,98523.06
2023-03-06T23:22:19.672Z,98520.69
2023-03-06T23:24:11.393Z,98517.13
2023-03-06T23:25:44.724Z,98525.78
2023-03-06T23:27:19.324Z,98521.44
2023-03-06T23:28:53.386Z,98528.41
2023-03-06T23:30:26.700Z,98519.13
2023-03-06T23:31:59.848Z,98519.44
2023-03-06T23:33:33.034Z,98513.59
2023-03-06T23:35:07.725Z,98523.25
2023-03-06T23:36:42.221Z,98521.44
2023-03-06T23:38:15.471Z,98522.13
2023-03-06T23:39:49.481Z,98516.28
2023-03-06T23:41:23.948Z,98519.00
2023-03-06T23:42:56.097Z,98505.94
2023-03-06T23:44:29.409Z,98507.75
2023-03-06T23:46:01.632Z,98511.34
2023-03-06T23:47:35.765Z,98511.47
2023-03-06T23:49:08.997Z,98508.00
2023-03-06T23:50:42.574Z,98513.16
2023-03-06T23:52:17.067Z,98500.06
2023-03-06T23:53:54.760Z,98500.81
2023-03-06T23:55:27.849Z,98506.88
2023-03-06T23:57:01.129Z,98503.38
2023-03-06T23:58:34.454Z,98508.56
